Terminal Aerodrome Forecast
Issued by NWS

Current Version | Previous Version | Graphics & Text | Print | Product List | Glossary On
Versions: 1 2 3 4 5 6 7 8 9 10 11 12 13 14 15 16 17 18 19 20
000
FTUS41 KILN 012100 AAB
TAFLCK
TAF AMD
KLCK 012103Z 0121/0218 24004KT 2SM -SNPL BR OVC004
     FM012300 29010KT 4SM BR OVC009
     FM020200 29010KT P6SM OVC012
     FM021300 32005KT P6SM OVC018
      TEMPO 0214/0218 SCT020=

USA.gov is the U.S. government's official web portal to all federal, state and local government web resources and services.